Ana Sayfa
METAR-TAF:

METAR-TAF

Havaalanları :

Mesa, Arizona, Amerika Birleşik Devletleri

Enlem: 33-28N, Boylam: 111-44W, yükseklik: 424 m

Güncel hava durumu gözlemi

Rapor saat 23:10 UTC de 39 dakika önce yapıldı.
Rüzgar doğu/kuzeydoğudan 3 kt
Sıcaklık 10°C
Nem 87%
Basınç 1014 hPa
Görüş mesafesi: 16.1 km
500 ft yükseklikte az bulutlu

METAR: KFFZ 092310Z 06003KT 10SM FEW005 10/08 A2993 RMK AO2 LTG DSNT NW RAE2257 P0000 T01000078

Saat: 16:49 (23:49 UTC)


TAF: eksik

4.000'den fazla havaalanı için hava durumu gözlemleri ve tahminleri (METAR ve TAF raporları).

Kullanılabilir istasyonlar harita üzerinde sarı ve kırmızı noktalarla gösterilir.

İstasyonun adını görmek için fareyi noktanın üzerinde gezdirin.

Sonrasında hava gözlem ve tahminlerini görmek için tıklayın.

Haritayı değiştirmek için: yaklaştırmak için siyah artı işaretli yeşil düğmeye ve uzaklaştırmak için de eksi işaretli düğmeye hızla tıklayın; bitişik haritalar için yeşil okları kullanın.


METAR-TAF: